sensor_id;sensor_type;location;lat;lon;timestamp;pressure;altitude;pressure_sealevel;temperature;humidity
80781;BME280;70341;56.408;10.874;2023-09-19T00:00:43;99825.59;;;18.41;76.82
80781;BME280;70341;56.408;10.874;2023-09-19T00:03:31;99815.53;;;18.43;76.34
80781;BME280;70341;56.408;10.874;2023-09-19T00:05:58;99825.27;;;18.47;76.11
80781;BME280;70341;56.408;10.874;2023-09-19T00:08:25;99816.77;;;18.49;75.83
80781;BME280;70341;56.408;10.874;2023-09-19T00:10:54;99809.96;;;18.51;75.75
80781;BME280;70341;56.408;10.874;2023-09-19T00:13:21;99812.81;;;18.51;75.70
80781;BME280;70341;56.408;10.874;2023-09-19T00:15:48;99807.74;;;18.50;75.63
80781;BME280;70341;56.408;10.874;2023-09-19T00:18:20;99802.83;;;18.50;75.49
80781;BME280;70341;56.408;10.874;2023-09-19T00:20:47;99793.66;;;18.51;75.43
80781;BME280;70341;56.408;10.874;2023-09-19T00:23:15;99796.52;;;18.50;75.55
80781;BME280;70341;56.408;10.874;2023-09-19T00:25:42;99794.62;;;18.50;75.54
80781;BME280;70341;56.408;10.874;2023-09-19T00:28:09;99798.88;;;18.48;75.69
80781;BME280;70341;56.408;10.874;2023-09-19T00:30:37;99796.06;;;18.48;75.62
80781;BME280;70341;56.408;10.874;2023-09-19T00:33:04;99791.85;;;18.46;75.19
80781;BME280;70341;56.408;10.874;2023-09-19T00:35:31;99797.73;;;18.43;75.00
80781;BME280;70341;56.408;10.874;2023-09-19T00:38:00;99804.25;;;18.41;74.93
80781;BME280;70341;56.408;10.874;2023-09-19T00:40:27;99788.27;;;18.36;74.72
80781;BME280;70341;56.408;10.874;2023-09-19T00:42:57;99784.10;;;18.34;74.62
80781;BME280;70341;56.408;10.874;2023-09-19T00:45:26;99784.17;;;18.33;74.88
80781;BME280;70341;56.408;10.874;2023-09-19T00:47:52;99787.46;;;18.33;75.15
80781;BME280;70341;56.408;10.874;2023-09-19T00:50:24;99784.80;;;18.31;75.28
80781;BME280;70341;56.408;10.874;2023-09-19T00:52:54;99785.87;;;18.29;75.43
80781;BME280;70341;56.408;10.874;2023-09-19T00:55:24;99782.00;;;18.27;75.44
80781;BME280;70341;56.408;10.874;2023-09-19T00:57:55;99772.35;;;18.29;75.47
80781;BME280;70341;56.408;10.874;2023-09-19T01:00:22;99778.95;;;18.30;75.64
80781;BME280;70341;56.408;10.874;2023-09-19T01:02:50;99773.27;;;18.29;75.60
80781;BME280;70341;56.408;10.874;2023-09-19T01:05:18;99765.77;;;18.30;75.22
80781;BME280;70341;56.408;10.874;2023-09-19T01:07:46;99776.23;;;18.30;74.06
80781;BME280;70341;56.408;10.874;2023-09-19T01:10:17;99761.08;;;18.28;74.14
80781;BME280;70341;56.408;10.874;2023-09-19T01:29:42;99756.55;;;18.15;74.64
80781;BME280;70341;56.408;10.874;2023-09-19T01:32:18;99759.35;;;18.13;74.68
80781;BME280;70341;56.408;10.874;2023-09-19T01:37:18;99757.22;;;18.09;74.32
80781;BME280;70341;56.408;10.874;2023-09-19T01:39:50;99752.36;;;18.09;74.22
80781;BME280;70341;56.408;10.874;2023-09-19T01:42:37;99750.57;;;18.11;73.95
80781;BME280;70341;56.408;10.874;2023-09-19T01:45:23;99743.55;;;18.11;73.73
80781;BME280;70341;56.408;10.874;2023-09-19T01:47:55;99745.81;;;18.10;73.58
80781;BME280;70341;56.408;10.874;2023-09-19T01:50:43;99736.59;;;18.10;73.60
80781;BME280;70341;56.408;10.874;2023-09-19T01:53:34;99728.98;;;18.11;73.61
80781;BME280;70341;56.408;10.874;2023-09-19T01:56:08;99729.27;;;18.10;73.47
80781;BME280;70341;56.408;10.874;2023-09-19T01:58:46;99730.77;;;18.07;73.34
80781;BME280;70341;56.408;10.874;2023-09-19T02:01:22;99732.16;;;18.05;73.23
80781;BME280;70341;56.408;10.874;2023-09-19T02:03:51;99719.64;;;18.03;72.97
80781;BME280;70341;56.408;10.874;2023-09-19T02:06:19;99720.65;;;18.02;72.97
80781;BME280;70341;56.408;10.874;2023-09-19T02:08:46;99722.61;;;17.97;73.07
80781;BME280;70341;56.408;10.874;2023-09-19T02:11:14;99729.70;;;17.92;73.28
80781;BME280;70341;56.408;10.874;2023-09-19T02:13:41;99726.39;;;17.89;73.53
80781;BME280;70341;56.408;10.874;2023-09-19T02:16:10;99721.31;;;17.87;73.66
80781;BME280;70341;56.408;10.874;2023-09-19T02:18:39;99721.14;;;17.85;74.41
80781;BME280;70341;56.408;10.874;2023-09-19T02:21:06;99716.85;;;17.79;76.63
80781;BME280;70341;56.408;10.874;2023-09-19T02:23:33;99717.48;;;17.65;77.52
80781;BME280;70341;56.408;10.874;2023-09-19T02:26:01;99715.13;;;17.51;77.42
80781;BME280;70341;56.408;10.874;2023-09-19T02:28:28;99724.33;;;17.37;78.02
80781;BME280;70341;56.408;10.874;2023-09-19T02:30:56;99732.98;;;17.26;78.80
80781;BME280;70341;56.408;10.874;2023-09-19T02:33:24;99736.42;;;17.17;79.02
80781;BME280;70341;56.408;10.874;2023-09-19T02:35:55;99738.40;;;17.09;78.81
80781;BME280;70341;56.408;10.874;2023-09-19T02:38:25;99743.20;;;17.03;78.60
80781;BME280;70341;56.408;10.874;2023-09-19T02:40:53;99754.75;;;16.98;78.16
80781;BME280;70341;56.408;10.874;2023-09-19T02:43:23;99758.22;;;16.93;77.63
80781;BME280;70341;56.408;10.874;2023-09-19T02:45:50;99759.79;;;16.89;75.82
80781;BME280;70341;56.408;10.874;2023-09-19T02:48:20;99756.57;;;16.83;74.97
80781;BME280;70341;56.408;10.874;2023-09-19T02:50:50;99759.52;;;16.72;74.78
80781;BME280;70341;56.408;10.874;2023-09-19T02:53:19;99755.35;;;16.64;74.88
80781;BME280;70341;56.408;10.874;2023-09-19T02:55:47;99752.63;;;16.53;74.66
80781;BME280;70341;56.408;10.874;2023-09-19T02:58:14;99751.02;;;16.44;74.82
80781;BME280;70341;56.408;10.874;2023-09-19T03:00:42;99762.46;;;16.40;74.90
80781;BME280;70341;56.408;10.874;2023-09-19T03:03:09;99768.52;;;16.34;74.83
80781;BME280;70341;56.408;10.874;2023-09-19T03:05:36;99773.86;;;16.28;74.39
80781;BME280;70341;56.408;10.874;2023-09-19T03:08:04;99769.40;;;16.20;74.22
80781;BME280;70341;56.408;10.874;2023-09-19T03:10:31;99772.09;;;16.14;73.90
80781;BME280;70341;56.408;10.874;2023-09-19T03:12:58;99772.13;;;16.06;73.75
80781;BME280;70341;56.408;10.874;2023-09-19T03:15:26;99778.08;;;16.02;73.64
80781;BME280;70341;56.408;10.874;2023-09-19T03:17:53;99782.75;;;15.94;73.77
80781;BME280;70341;56.408;10.874;2023-09-19T03:20:21;99787.39;;;15.88;73.77
80781;BME280;70341;56.408;10.874;2023-09-19T03:22:48;99797.23;;;15.83;73.87
80781;BME280;70341;56.408;10.874;2023-09-19T03:25:15;99799.31;;;15.80;73.89
80781;BME280;70341;56.408;10.874;2023-09-19T03:27:42;99797.60;;;15.79;74.00
80781;BME280;70341;56.408;10.874;2023-09-19T03:30:11;99803.23;;;15.78;74.08
80781;BME280;70341;56.408;10.874;2023-09-19T03:32:47;99812.11;;;15.76;74.17
80781;BME280;70341;56.408;10.874;2023-09-19T03:35:16;99816.99;;;15.76;74.47
80781;BME280;70341;56.408;10.874;2023-09-19T03:37:44;99810.44;;;15.77;74.41
80781;BME280;70341;56.408;10.874;2023-09-19T03:40:11;99813.16;;;15.79;74.48
80781;BME280;70341;56.408;10.874;2023-09-19T03:42:41;99811.20;;;15.79;74.37
80781;BME280;70341;56.408;10.874;2023-09-19T03:45:09;99807.02;;;15.75;74.48
80781;BME280;70341;56.408;10.874;2023-09-19T03:47:39;99813.83;;;15.75;74.46
80781;BME280;70341;56.408;10.874;2023-09-19T03:50:08;99815.30;;;15.74;74.59
80781;BME280;70341;56.408;10.874;2023-09-19T03:52:37;99813.81;;;15.75;74.34
80781;BME280;70341;56.408;10.874;2023-09-19T03:55:04;99811.23;;;15.73;74.19
80781;BME280;70341;56.408;10.874;2023-09-19T03:57:31;99813.75;;;15.71;74.14
80781;BME280;70341;56.408;10.874;2023-09-19T03:59:59;99814.92;;;15.68;74.14
80781;BME280;70341;56.408;10.874;2023-09-19T04:02:26;99817.48;;;15.67;73.89
80781;BME280;70341;56.408;10.874;2023-09-19T04:04:53;99824.98;;;15.65;73.85
80781;BME280;70341;56.408;10.874;2023-09-19T04:07:22;99816.45;;;15.64;73.91
80781;BME280;70341;56.408;10.874;2023-09-19T04:09:49;99819.89;;;15.61;74.02
80781;BME280;70341;56.408;10.874;2023-09-19T04:12:15;99821.80;;;15.57;74.00
80781;BME280;70341;56.408;10.874;2023-09-19T04:14:44;99828.43;;;15.54;73.79
80781;BME280;70341;56.408;10.874;2023-09-19T04:17:11;99840.98;;;15.49;73.46
80781;BME280;70341;56.408;10.874;2023-09-19T04:19:38;99840.98;;;15.45;73.62
80781;BME280;70341;56.408;10.874;2023-09-19T04:22:06;99846.54;;;15.40;73.57
80781;BME280;70341;56.408;10.874;2023-09-19T04:24:33;99843.23;;;15.35;73.58
80781;BME280;70341;56.408;10.874;2023-09-19T04:27:00;99848.46;;;15.35;73.64
80781;BME280;70341;56.408;10.874;2023-09-19T04:29:28;99852.34;;;15.33;73.66
80781;BME280;70341;56.408;10.874;2023-09-19T04:31:56;99857.36;;;15.31;73.52
80781;BME280;70341;56.408;10.874;2023-09-19T04:34:23;99866.82;;;15.27;73.33
80781;BME280;70341;56.408;10.874;2023-09-19T04:36:51;99866.80;;;15.25;73.46
80781;BME280;70341;56.408;10.874;2023-09-19T04:39:18;99865.93;;;15.27;73.32
80781;BME280;70341;56.408;10.874;2023-09-19T04:41:45;99867.60;;;15.28;73.09
80781;BME280;70341;56.408;10.874;2023-09-19T04:44:13;99867.33;;;15.27;72.75
80781;BME280;70341;56.408;10.874;2023-09-19T04:46:40;99859.88;;;15.26;72.59
80781;BME280;70341;56.408;10.874;2023-09-19T04:49:07;99867.13;;;15.25;72.34
80781;BME280;70341;56.408;10.874;2023-09-19T04:51:35;99872.27;;;15.23;71.94
80781;BME280;70341;56.408;10.874;2023-09-19T04:54:02;99876.08;;;15.25;71.65
80781;BME280;70341;56.408;10.874;2023-09-19T04:56:30;99878.27;;;15.24;71.33
80781;BME280;70341;56.408;10.874;2023-09-19T04:58:59;99884.64;;;15.23;71.09
80781;BME280;70341;56.408;10.874;2023-09-19T05:01:26;99886.70;;;15.21;70.85
80781;BME280;70341;56.408;10.874;2023-09-19T05:03:53;99883.66;;;15.19;70.80
80781;BME280;70341;56.408;10.874;2023-09-19T05:06:22;99887.89;;;15.20;70.40
80781;BME280;70341;56.408;10.874;2023-09-19T05:08:50;99878.27;;;15.17;70.19
80781;BME280;70341;56.408;10.874;2023-09-19T05:11:18;99887.41;;;15.17;69.40
80781;BME280;70341;56.408;10.874;2023-09-19T05:13:46;99887.38;;;15.10;68.48
80781;BME280;70341;56.408;10.874;2023-09-19T05:16:13;99899.05;;;15.04;68.80
80781;BME280;70341;56.408;10.874;2023-09-19T05:18:40;99898.08;;;15.00;68.74
80781;BME280;70341;56.408;10.874;2023-09-19T05:21:08;99909.09;;;14.96;68.15
80781;BME280;70341;56.408;10.874;2023-09-19T05:23:35;99915.09;;;14.93;68.25
80781;BME280;70341;56.408;10.874;2023-09-19T05:26:02;99913.73;;;14.89;67.93
80781;BME280;70341;56.408;10.874;2023-09-19T05:28:30;99909.61;;;14.82;67.94
80781;BME280;70341;56.408;10.874;2023-09-19T05:31:00;99924.79;;;14.82;68.07
80781;BME280;70341;56.408;10.874;2023-09-19T05:33:29;99921.68;;;14.76;68.28
80781;BME280;70341;56.408;10.874;2023-09-19T05:35:56;99922.02;;;14.71;68.38
80781;BME280;70341;56.408;10.874;2023-09-19T05:38:23;99924.77;;;14.69;68.51
80781;BME280;70341;56.408;10.874;2023-09-19T05:40:50;99923.85;;;14.70;68.65
80781;BME280;70341;56.408;10.874;2023-09-19T05:43:17;99931.45;;;14.71;68.81
80781;BME280;70341;56.408;10.874;2023-09-19T05:45:44;99939.78;;;14.72;68.95
80781;BME280;70341;56.408;10.874;2023-09-19T05:48:14;99932.81;;;14.75;69.07
80781;BME280;70341;56.408;10.874;2023-09-19T05:50:42;99932.29;;;14.80;69.13
80781;BME280;70341;56.408;10.874;2023-09-19T05:53:12;99935.10;;;14.86;69.27
80781;BME280;70341;56.408;10.874;2023-09-19T05:55:39;99939.29;;;14.97;69.22
80781;BME280;70341;56.408;10.874;2023-09-19T05:58:06;99942.14;;;15.10;68.97
80781;BME280;70341;56.408;10.874;2023-09-19T06:00:34;99945.41;;;15.22;69.04
80781;BME280;70341;56.408;10.874;2023-09-19T06:03:04;99951.67;;;15.34;68.95
80781;BME280;70341;56.408;10.874;2023-09-19T06:05:33;99954.16;;;15.46;68.88
80781;BME280;70341;56.408;10.874;2023-09-19T06:08:00;99951.20;;;15.58;68.73
80781;BME280;70341;56.408;10.874;2023-09-19T06:10:27;99953.91;;;15.68;68.33
80781;BME280;70341;56.408;10.874;2023-09-19T06:12:55;99955.63;;;15.78;68.28
80781;BME280;70341;56.408;10.874;2023-09-19T06:15:22;99962.83;;;15.89;67.41
80781;BME280;70341;56.408;10.874;2023-09-19T06:17:53;99965.05;;;15.98;67.17
80781;BME280;70341;56.408;10.874;2023-09-19T06:20:22;99976.73;;;16.07;66.60
80781;BME280;70341;56.408;10.874;2023-09-19T06:22:50;99975.56;;;16.15;66.28
80781;BME280;70341;56.408;10.874;2023-09-19T06:25:18;99984.29;;;16.21;66.26
80781;BME280;70341;56.408;10.874;2023-09-19T06:27:48;99994.98;;;16.27;65.62
80781;BME280;70341;56.408;10.874;2023-09-19T06:30:15;99997.06;;;16.28;65.17
80781;BME280;70341;56.408;10.874;2023-09-19T06:32:42;100005.90;;;16.27;63.26
80781;BME280;70341;56.408;10.874;2023-09-19T06:35:11;100001.70;;;16.30;63.90
80781;BME280;70341;56.408;10.874;2023-09-19T06:37:40;100003.55;;;16.44;62.79
80781;BME280;70341;56.408;10.874;2023-09-19T06:40:14;100010.09;;;16.54;61.59
80781;BME280;70341;56.408;10.874;2023-09-19T06:42:49;100016.73;;;16.66;60.80
80781;BME280;70341;56.408;10.874;2023-09-19T06:45:18;100022.66;;;16.82;60.11
80781;BME280;70341;56.408;10.874;2023-09-19T06:47:47;100019.44;;;16.98;59.13
80781;BME280;70341;56.408;10.874;2023-09-19T06:50:14;100026.91;;;17.13;58.84
80781;BME280;70341;56.408;10.874;2023-09-19T06:52:42;100040.02;;;17.31;57.97
80781;BME280;70341;56.408;10.874;2023-09-19T06:55:09;100035.59;;;17.42;57.50
80781;BME280;70341;56.408;10.874;2023-09-19T06:57:36;100036.38;;;17.36;56.49
80781;BME280;70341;56.408;10.874;2023-09-19T07:00:05;100042.41;;;17.26;56.39
80781;BME280;70341;56.408;10.874;2023-09-19T07:02:32;100041.11;;;17.10;54.79
80781;BME280;70341;56.408;10.874;2023-09-19T07:04:59;100046.69;;;16.94;55.32
80781;BME280;70341;56.408;10.874;2023-09-19T07:07:27;100052.02;;;16.79;54.42
80781;BME280;70341;56.408;10.874;2023-09-19T07:09:54;100055.48;;;16.61;53.90
80781;BME280;70341;56.408;10.874;2023-09-19T07:12:21;100050.05;;;16.45;54.90
80781;BME280;70341;56.408;10.874;2023-09-19T07:14:49;100048.70;;;16.28;55.55
80781;BME280;70341;56.408;10.874;2023-09-19T07:17:16;100026.23;;;16.02;57.16
80781;BME280;70341;56.408;10.874;2023-09-19T07:19:43;100015.09;;;15.78;57.81
80781;BME280;70341;56.408;10.874;2023-09-19T07:22:11;100018.77;;;15.62;57.86
80781;BME280;70341;56.408;10.874;2023-09-19T07:24:38;100016.99;;;15.54;58.06
80781;BME280;70341;56.408;10.874;2023-09-19T07:27:05;100018.79;;;15.52;58.14
80781;BME280;70341;56.408;10.874;2023-09-19T07:29:33;100014.38;;;15.51;57.88
80781;BME280;70341;56.408;10.874;2023-09-19T07:32:00;100015.10;;;15.55;57.97
80781;BME280;70341;56.408;10.874;2023-09-19T07:34:27;100021.91;;;15.60;57.79
80781;BME280;70341;56.408;10.874;2023-09-19T07:36:56;100022.42;;;15.64;57.67
80781;BME280;70341;56.408;10.874;2023-09-19T07:39:23;100032.50;;;15.71;57.68
80781;BME280;70341;56.408;10.874;2023-09-19T07:41:50;100027.68;;;15.80;57.62
80781;BME280;70341;56.408;10.874;2023-09-19T07:44:18;100029.51;;;15.96;57.11
80781;BME280;70341;56.408;10.874;2023-09-19T07:46:45;100028.98;;;16.06;57.14
80781;BME280;70341;56.408;10.874;2023-09-19T07:49:12;100040.83;;;16.11;56.56
80781;BME280;70341;56.408;10.874;2023-09-19T07:51:41;100036.92;;;16.08;56.13
80781;BME280;70341;56.408;10.874;2023-09-19T07:54:08;100045.59;;;16.07;57.00
80781;BME280;70341;56.408;10.874;2023-09-19T07:56:35;100047.52;;;16.22;57.12
80781;BME280;70341;56.408;10.874;2023-09-19T07:59:02;100055.66;;;16.47;56.63
80781;BME280;70341;56.408;10.874;2023-09-19T08:01:29;100054.91;;;16.76;55.70
80781;BME280;70341;56.408;10.874;2023-09-19T08:03:56;100057.79;;;17.04;54.91
80781;BME280;70341;56.408;10.874;2023-09-19T08:06:24;100063.52;;;17.24;54.93
80781;BME280;70341;56.408;10.874;2023-09-19T08:08:51;100055.52;;;17.51;54.72
80781;BME280;70341;56.408;10.874;2023-09-19T08:11:18;100057.66;;;17.80;54.47
80781;BME280;70341;56.408;10.874;2023-09-19T08:13:47;100068.10;;;18.07;53.27
80781;BME280;70341;56.408;10.874;2023-09-19T08:16:15;100072.09;;;18.28;52.60
80781;BME280;70341;56.408;10.874;2023-09-19T08:18:48;100064.64;;;18.48;52.15
80781;BME280;70341;56.408;10.874;2023-09-19T08:21:15;100072.12;;;18.75;51.80
80781;BME280;70341;56.408;10.874;2023-09-19T08:23:45;100072.54;;;19.00;50.74
80781;BME280;70341;56.408;10.874;2023-09-19T08:26:12;100073.67;;;19.32;50.09
80781;BME280;70341;56.408;10.874;2023-09-19T08:28:39;100069.31;;;19.47;49.07
80781;BME280;70341;56.408;10.874;2023-09-19T08:31:08;100073.13;;;19.65;48.77
80781;BME280;70341;56.408;10.874;2023-09-19T08:33:37;100074.54;;;19.88;48.28
80781;BME280;70341;56.408;10.874;2023-09-19T08:36:07;100081.80;;;20.13;47.86
80781;BME280;70341;56.408;10.874;2023-09-19T08:38:35;100085.39;;;20.47;46.40
80781;BME280;70341;56.408;10.874;2023-09-19T08:41:07;100092.20;;;20.79;45.25
80781;BME280;70341;56.408;10.874;2023-09-19T08:43:36;100081.33;;;21.21;44.91
80781;BME280;70341;56.408;10.874;2023-09-19T08:49:14;100090.87;;;22.10;42.78
80781;BME280;70341;56.408;10.874;2023-09-19T08:51:53;100085.77;;;22.57;41.88
80781;BME280;70341;56.408;10.874;2023-09-19T08:54:34;100079.86;;;22.57;42.68
80781;BME280;70341;56.408;10.874;2023-09-19T08:57:08;100085.81;;;22.97;42.25
80781;BME280;70341;56.408;10.874;2023-09-19T08:59:37;100099.94;;;23.58;41.44
80781;BME280;70341;56.408;10.874;2023-09-19T09:02:12;100095.97;;;24.19;40.16
80781;BME280;70341;56.408;10.874;2023-09-19T09:04:41;100099.74;;;24.90;37.95
80781;BME280;70341;56.408;10.874;2023-09-19T09:07:12;100098.38;;;25.49;36.81
80781;BME280;70341;56.408;10.874;2023-09-19T09:09:40;100104.55;;;25.79;34.96
80781;BME280;70341;56.408;10.874;2023-09-19T09:12:14;100109.80;;;25.67;33.76
80781;BME280;70341;56.408;10.874;2023-09-19T09:14:45;100101.38;;;25.74;34.24
80781;BME280;70341;56.408;10.874;2023-09-19T09:17:13;100097.73;;;26.23;32.90
80781;BME280;70341;56.408;10.874;2023-09-19T09:19:40;100105.67;;;26.56;31.68
80781;BME280;70341;56.408;10.874;2023-09-19T09:22:11;100101.89;;;27.14;30.75
80781;BME280;70341;56.408;10.874;2023-09-19T09:24:53;100097.91;;;27.66;30.58
80781;BME280;70341;56.408;10.874;2023-09-19T09:27:21;100101.60;;;28.19;28.81
80781;BME280;70341;56.408;10.874;2023-09-19T09:29:50;100099.88;;;27.91;29.02
80781;BME280;70341;56.408;10.874;2023-09-19T09:32:27;100101.41;;;28.04;28.86
80781;BME280;70341;56.408;10.874;2023-09-19T09:34:58;100099.73;;;28.24;29.53
80781;BME280;70341;56.408;10.874;2023-09-19T09:37:29;100096.41;;;28.64;28.98
80781;BME280;70341;56.408;10.874;2023-09-19T09:40:00;100104.29;;;28.33;28.65
80781;BME280;70341;56.408;10.874;2023-09-19T09:42:36;100108.20;;;27.46;29.76
80781;BME280;70341;56.408;10.874;2023-09-19T09:45:24;100109.20;;;26.51;30.01
80781;BME280;70341;56.408;10.874;2023-09-19T09:47:52;100095.61;;;26.24;30.83
80781;BME280;70341;56.408;10.874;2023-09-19T09:50:32;100096.03;;;25.63;32.23
80781;BME280;70341;56.408;10.874;2023-09-19T09:53:01;100100.94;;;25.47;32.43
80781;BME280;70341;56.408;10.874;2023-09-19T09:55:28;100104.77;;;26.28;31.85
80781;BME280;70341;56.408;10.874;2023-09-19T09:58:16;100103.20;;;26.15;31.76
80781;BME280;70341;56.408;10.874;2023-09-19T10:00:55;100117.17;;;24.61;32.75
80781;BME280;70341;56.408;10.874;2023-09-19T10:03:39;100123.69;;;23.15;34.25
80781;BME280;70341;56.408;10.874;2023-09-19T10:06:14;100129.58;;;21.82;35.82
80781;BME280;70341;56.408;10.874;2023-09-19T10:09:06;100132.95;;;21.03;36.11
80781;BME280;70341;56.408;10.874;2023-09-19T10:11:35;100129.34;;;20.44;37.05
80781;BME280;70341;56.408;10.874;2023-09-19T10:14:05;100128.55;;;20.29;38.23
80781;BME280;70341;56.408;10.874;2023-09-19T10:16:40;100129.31;;;20.64;38.24
80781;BME280;70341;56.408;10.874;2023-09-19T10:19:07;100126.77;;;21.74;36.55
80781;BME280;70341;56.408;10.874;2023-09-19T10:21:37;100132.34;;;21.59;37.10
80781;BME280;70341;56.408;10.874;2023-09-19T10:24:05;100129.92;;;21.18;38.10
80781;BME280;70341;56.408;10.874;2023-09-19T10:26:34;100134.92;;;21.33;38.60
80781;BME280;70341;56.408;10.874;2023-09-19T10:29:06;100130.73;;;23.01;37.36
80781;BME280;70341;56.408;10.874;2023-09-19T10:31:37;100127.04;;;25.10;34.41
80781;BME280;70341;56.408;10.874;2023-09-19T10:34:08;100130.64;;;27.11;31.90
80781;BME280;70341;56.408;10.874;2023-09-19T10:36:36;100123.34;;;29.00;29.07
80781;BME280;70341;56.408;10.874;2023-09-19T10:39:06;100128.46;;;30.41;26.91
80781;BME280;70341;56.408;10.874;2023-09-19T10:41:34;100126.48;;;31.50;24.02
80781;BME280;70341;56.408;10.874;2023-09-19T10:44:04;100121.27;;;32.38;24.02
80781;BME280;70341;56.408;10.874;2023-09-19T10:46:34;100123.61;;;33.45;23.28
80781;BME280;70341;56.408;10.874;2023-09-19T10:49:03;100118.77;;;34.19;21.90
80781;BME280;70341;56.408;10.874;2023-09-19T10:51:40;100121.80;;;34.70;20.24
80781;BME280;70341;56.408;10.874;2023-09-19T10:54:17;100125.73;;;35.04;20.34
80781;BME280;70341;56.408;10.874;2023-09-19T10:56:50;100118.52;;;35.24;19.27
80781;BME280;70341;56.408;10.874;2023-09-19T10:59:20;100122.61;;;35.40;19.08
80781;BME280;70341;56.408;10.874;2023-09-19T11:01:51;100125.02;;;35.65;18.60
80781;BME280;70341;56.408;10.874;2023-09-19T11:04:33;100129.72;;;35.71;18.26
80781;BME280;70341;56.408;10.874;2023-09-19T11:07:11;100124.92;;;35.98;18.80
80781;BME280;70341;56.408;10.874;2023-09-19T11:12:10;100112.30;;;36.67;17.60
80781;BME280;70341;56.408;10.874;2023-09-19T11:14:40;100111.84;;;37.05;18.06
80781;BME280;70341;56.408;10.874;2023-09-19T11:30:38;100118.58;;;36.78;16.05
80781;BME280;70341;56.408;10.874;2023-09-19T11:33:44;100115.66;;;35.32;17.75
80781;BME280;70341;56.408;10.874;2023-09-19T11:36:16;100119.14;;;33.37;19.90
80781;BME280;70341;56.408;10.874;2023-09-19T11:44:31;100091.22;;;31.04;22.56
80781;BME280;70341;56.408;10.874;2023-09-19T11:46:53;100095.57;;;29.91;24.25
80781;BME280;70341;56.408;10.874;2023-09-19T11:49:31;100095.73;;;29.58;24.84
80781;BME280;70341;56.408;10.874;2023-09-19T11:52:01;100096.55;;;30.12;24.05
80781;BME280;70341;56.408;10.874;2023-09-19T11:54:29;100101.06;;;30.37;22.98
80781;BME280;70341;56.408;10.874;2023-09-19T11:57:00;100103.76;;;29.88;23.21
80781;BME280;70341;56.408;10.874;2023-09-19T11:59:30;100093.60;;;29.61;24.05
80781;BME280;70341;56.408;10.874;2023-09-19T12:02:06;100096.91;;;29.54;24.25
80781;BME280;70341;56.408;10.874;2023-09-19T12:04:42;100097.81;;;29.20;24.41
80781;BME280;70341;56.408;10.874;2023-09-19T12:07:14;100092.16;;;28.46;25.37
80781;BME280;70341;56.408;10.874;2023-09-19T12:09:51;100100.84;;;27.57;27.37
80781;BME280;70341;56.408;10.874;2023-09-19T12:12:30;100096.25;;;26.70;29.16
80781;BME280;70341;56.408;10.874;2023-09-19T12:14:57;100094.98;;;25.98;30.69
80781;BME280;70341;56.408;10.874;2023-09-19T12:17:41;100097.95;;;25.57;31.75
80781;BME280;70341;56.408;10.874;2023-09-19T12:20:10;100102.47;;;25.10;32.53
80781;BME280;70341;56.408;10.874;2023-09-19T12:22:46;100095.14;;;24.55;33.58
80781;BME280;70341;56.408;10.874;2023-09-19T12:25:15;100097.76;;;24.01;34.72
80781;BME280;70341;56.408;10.874;2023-09-19T12:27:47;100093.80;;;23.56;35.41
80781;BME280;70341;56.408;10.874;2023-09-19T12:30:16;100104.02;;;23.30;36.17
80781;BME280;70341;56.408;10.874;2023-09-19T12:32:55;100110.02;;;23.04;36.66
80781;BME280;70341;56.408;10.874;2023-09-19T12:35:32;100115.71;;;22.66;37.61
80781;BME280;70341;56.408;10.874;2023-09-19T12:38:02;100122.27;;;22.29;38.73
80781;BME280;70341;56.408;10.874;2023-09-19T12:40:30;100113.21;;;22.03;39.60
80781;BME280;70341;56.408;10.874;2023-09-19T12:43:00;100110.18;;;21.90;40.25
80781;BME280;70341;56.408;10.874;2023-09-19T12:45:29;100115.30;;;21.80;40.08
80781;BME280;70341;56.408;10.874;2023-09-19T12:48:23;100116.67;;;21.62;40.52
80781;BME280;70341;56.408;10.874;2023-09-19T12:56:02;100110.34;;;20.82;42.73
80781;BME280;70341;56.408;10.874;2023-09-19T12:58:29;100107.11;;;20.60;42.83
80781;BME280;70341;56.408;10.874;2023-09-19T13:00:58;100100.28;;;20.42;43.18
80781;BME280;70341;56.408;10.874;2023-09-19T13:03:29;100099.38;;;20.30;43.76
80781;BME280;70341;56.408;10.874;2023-09-19T13:06:02;100098.11;;;20.20;44.42
80781;BME280;70341;56.408;10.874;2023-09-19T13:08:38;100093.65;;;20.10;44.97
80781;BME280;70341;56.408;10.874;2023-09-19T13:11:14;100085.78;;;19.93;45.31
80781;BME280;70341;56.408;10.874;2023-09-19T13:13:49;100084.36;;;19.73;46.11
80781;BME280;70341;56.408;10.874;2023-09-19T13:16:20;100081.83;;;19.52;46.64
80781;BME280;70341;56.408;10.874;2023-09-19T13:18:55;100078.74;;;19.36;48.31
80781;BME280;70341;56.408;10.874;2023-09-19T13:24:19;100077.23;;;18.98;52.41
80781;BME280;70341;56.408;10.874;2023-09-19T13:26:47;100089.52;;;18.63;54.01
80781;BME280;70341;56.408;10.874;2023-09-19T13:29:15;100091.01;;;18.34;55.15
80781;BME280;70341;56.408;10.874;2023-09-19T13:31:45;100084.42;;;18.18;56.61
80781;BME280;70341;56.408;10.874;2023-09-19T13:34:13;100085.27;;;18.10;56.87
80781;BME280;70341;56.408;10.874;2023-09-19T13:36:40;100074.36;;;17.98;57.02
80781;BME280;70341;56.408;10.874;2023-09-19T13:39:07;100075.48;;;17.95;57.68
80781;BME280;70341;56.408;10.874;2023-09-19T13:41:34;100082.98;;;18.05;57.75
80781;BME280;70341;56.408;10.874;2023-09-19T13:44:01;100080.55;;;18.17;57.46
80781;BME280;70341;56.408;10.874;2023-09-19T13:46:28;100073.92;;;18.25;57.67
80781;BME280;70341;56.408;10.874;2023-09-19T13:48:56;100074.70;;;18.27;57.98
80781;BME280;70341;56.408;10.874;2023-09-19T13:51:23;100081.55;;;18.18;58.70